»·PEaware :: SWA1881 KLAX-KLAS

SWA1881 :: KLAX-KLAS

FLIGHT INFORMATION

Flight Status: Arrived
Operator:
Southwest Airlines
More flights by this operator :: More flights under this callsign
Pilot: Jone M. (10385)
Aircraft: BOEING 737-300
(B733)
More flights by this aircraft type
Origin: KLAX Los Angeles Intl
United States
Destination: KLAS McCarran Intl
United States
More flights between these airports :: More routes between these airports
Route: +ORCKA3 MISEN KEPEC6
File this flight plan on PilotEdge
Remarks: PBN / A1B3B4B5D3D4 DOF / 190109 REG / N368SW OPR / SWA PER / C RMK / TCAS
Altitude:
(Current/Filed)
35,000ft
Speed:
(Current/Filed)
420kts
Departed: 09-Jan-19 01:01 PM
Arrived: 09-Jan-19 01:45 PM
Distance/Time
Traveled:
205nm/0:44
Distance/Time
To Go:
Arrived

Flight Plot

Page will automatically refresh every two minutes.

Flight plan parsing failed; only flown route is shown


Map Options




Map Legend


Flown Route
Filed Route
Departure Airport
Arrival Airport
Navaid (VOR, NDB)
Fix

Horizontal Profiles

Position Reports

Time Latitude Longitude Heading Altitude Ground
Speed
09-Jan-19 12:19 33.946831 -118.400708 264 132ft 0kts
09-Jan-19 12:20 33.946831 -118.400708 264 132ft 0kts
09-Jan-19 12:21 33.946831 -118.400708 264 132ft 0kts
09-Jan-19 12:22 33.946831 -118.400708 264 132ft 0kts
09-Jan-19 12:23 33.946831 -118.400708 264 132ft 0kts
09-Jan-19 12:24 33.946831 -118.400708 264 132ft 0kts
09-Jan-19 12:25 33.946831 -118.400708 264 132ft 0kts
09-Jan-19 12:26 33.946831 -118.400708 264 132ft 0kts
09-Jan-19 12:27 33.946831 -118.400708 264 132ft 0kts
09-Jan-19 12:28 33.946831 -118.400708 264 132ft 0kts
09-Jan-19 12:29 33.946831 -118.400708 264 132ft 0kts
09-Jan-19 12:30 33.946831 -118.400708 264 132ft 0kts
09-Jan-19 12:31 33.946831 -118.400708 264 132ft 0kts
09-Jan-19 12:32 33.946831 -118.400708 264 132ft 0kts
09-Jan-19 12:33 33.946831 -118.400708 264 132ft 0kts
09-Jan-19 12:34 33.946831 -118.400708 264 132ft 0kts
09-Jan-19 12:35 33.946831 -118.400708 264 132ft 0kts
09-Jan-19 12:36 33.946831 -118.400708 264 132ft 0kts
09-Jan-19 12:37 33.946831 -118.400708 264 132ft 0kts
09-Jan-19 12:38 33.946831 -118.400708 264 132ft 0kts
09-Jan-19 12:39 33.946831 -118.400708 264 132ft 0kts
09-Jan-19 12:40 33.946831 -118.400708 264 132ft 0kts
09-Jan-19 12:41 33.946831 -118.400708 264 132ft 0kts
09-Jan-19 12:42 33.946831 -118.400708 264 132ft 0kts
09-Jan-19 12:43 33.946831 -118.400708 264 132ft 0kts
09-Jan-19 12:44 33.946831 -118.400708 264 132ft 0kts
09-Jan-19 12:45 33.946831 -118.400708 264 132ft 0kts
09-Jan-19 12:46 33.946831 -118.400708 264 132ft 0kts
09-Jan-19 12:47 33.946831 -118.400708 264 132ft 0kts
09-Jan-19 12:48 33.946831 -118.400707 264 132ft 0kts
09-Jan-19 12:49 33.946831 -118.400707 264 132ft 0kts
09-Jan-19 12:50 33.946876 -118.400177 288 132ft 1kts
09-Jan-19 12:51 33.946705 -118.400103 1 132ft 0kts
09-Jan-19 12:52 33.946705 -118.400103 1 132ft 0kts
09-Jan-19 12:53 33.946705 -118.400103 1 132ft 0kts
09-Jan-19 12:54 33.947225 -118.400121 4 132ft 9kts
09-Jan-19 12:55 33.947705 -118.400073 5 132ft 0kts
09-Jan-19 12:56 33.947706 -118.400073 5 132ft 0kts
09-Jan-19 12:57 33.948718 -118.400617 312 132ft 2kts
09-Jan-19 12:58 33.949237 -118.400659 358 132ft 3kts
09-Jan-19 12:59 33.950090 -118.402655 260 132ft 17kts
09-Jan-19 13:00 33.945567 -118.447249 263 949ft 175kts
09-Jan-19 13:01 33.938025 -118.516752 263 2910ft 249kts
09-Jan-19 13:02 33.912762 -118.586271 197 5890ft 275kts
09-Jan-19 13:03 33.870167 -118.534334 74 8637ft 296kts
09-Jan-19 13:04 33.920122 -118.452657 56 10437ft 348kts
09-Jan-19 13:05 33.974932 -118.358318 56 12904ft 373kts
09-Jan-19 13:06 34.006512 -118.302966 56 14313ft 382kts
09-Jan-19 13:07 34.067857 -118.194777 56 16773ft 400kts
09-Jan-19 13:08 34.122363 -118.098559 56 18685ft 415kts
09-Jan-19 13:09 34.188734 -117.980991 56 20797ft 430kts
09-Jan-19 13:10 34.253133 -117.866453 56 22573ft 444kts
09-Jan-19 13:11 34.323747 -117.740436 57 24334ft 458kts
09-Jan-19 13:12 34.398328 -117.612286 54 26072ft 468kts
09-Jan-19 13:14 34.474478 -117.484727 55 28721ft 463kts
09-Jan-19 13:15 34.552225 -117.353963 55 29247ft 475kts
09-Jan-19 13:16 34.629172 -117.223817 55 29205ft 472kts
09-Jan-19 13:17 34.706174 -117.093364 55 29210ft 472kts
09-Jan-19 13:18 34.771612 -116.981934 55 29209ft 472kts
09-Jan-19 13:19 34.848190 -116.851039 55 29210ft 472kts
09-Jan-19 13:20 34.924792 -116.719395 56 29209ft 472kts
09-Jan-19 13:21 34.999562 -116.586767 56 28112ft 474kts
09-Jan-19 13:22 35.074789 -116.453334 56 25236ft 468kts
09-Jan-19 13:23 35.156343 -116.336316 45 24199ft 416kts
09-Jan-19 13:24 35.232368 -116.241339 46 24176ft 391kts
09-Jan-19 13:25 35.313067 -116.139949 46 23757ft 428kts
09-Jan-19 13:26 35.397197 -116.033835 45 21591ft 439kts
09-Jan-19 13:27 35.482713 -115.925885 45 18727ft 436kts
09-Jan-19 13:28 35.565653 -115.820704 45 16392ft 419kts
09-Jan-19 13:29 35.645757 -115.718858 45 14000ft 396kts
09-Jan-19 13:30 35.715667 -115.629159 46 13105ft 329kts
09-Jan-19 13:31 35.790718 -115.573457 358 13129ft 322kts
09-Jan-19 13:32 35.879619 -115.568921 359 13127ft 321kts
09-Jan-19 13:32 35.939792 -115.564126 9 13121ft 324kts
09-Jan-19 13:34 36.001951 -115.468460 70 12813ft 339kts
09-Jan-19 13:35 36.030762 -115.364209 95 11265ft 302kts
09-Jan-19 13:36 36.023249 -115.264891 96 9644ft 287kts
09-Jan-19 13:36 36.017503 -115.186100 95 8988ft 277kts
09-Jan-19 13:37 36.011257 -115.094823 94 8048ft 250kts
09-Jan-19 13:39 36.011717 -114.996524 81 7256ft 233kts
09-Jan-19 13:39 36.038045 -114.949017 0 5824ft 188kts
09-Jan-19 13:40 36.063116 -114.989103 286 4893ft 151kts
09-Jan-19 13:41 36.071183 -115.038416 278 3947ft 148kts
09-Jan-19 13:42 36.073552 -115.088613 270 2811ft 162kts
09-Jan-19 13:43 36.073620 -115.140854 269 2188ft 123kts
09-Jan-19 13:44 36.074652 -115.154992 300 2188ft 12kts
09-Jan-19 13:45 36.078044 -115.156207 91 2188ft 26kts
09-Jan-19 13:46 36.077930 -115.148582 72 2188ft 15kts
09-Jan-19 13:47 36.080269 -115.148714 23 2188ft 2kts
09-Jan-19 13:48 36.080757 -115.147523 60 2188ft 0kts

Navigation Log

Ident Type
Flight plan parsing failed, navigation log unavailable